Time;durP1;ratioP1;P1;durP2;ratioP2;P2;SDS_P1;SDS_P2;PMS_P1;PMS_P2;Temp;Humidity;BMP_temperature;BMP_pressure;BME280_temperature;BME280_humidity;BME280_pressure;Samples;Min_cycle;Max_cycle;Signal;HPM_P1;HPM_P2
2023/11/04 00:00:19;;;;;;;5.40;3.05;;;;;;;13.66;100.00;99310.47;5018251;28;20116;-82
2023/11/04 00:02:44;;;;;;;6.30;4.28;;;;;;;14.31;100.00;99419.28;5035698;28;20029;-79
2023/11/04 00:05:10;;;;;;;4.20;3.90;;;;;;;14.09;100.00;99390.03;5053896;28;20107;-82
2023/11/04 00:07:37;;;;;;;6.47;5.88;;;;;;;13.56;100.00;99300.25;5052464;28;20072;-80
2023/11/04 00:10:04;;;;;;;5.05;4.30;;;;;;;12.75;100.00;99162.09;5032191;28;20124;-81
2023/11/04 00:12:29;;;;;;;4.93;4.53;;;;;;;13.96;100.00;99371.09;5039338;28;20136;-86
2023/11/04 00:14:55;;;;;;;4.32;3.60;;;;;;;14.05;100.00;99380.50;5030126;28;20461;-87
2023/11/04 00:17:20;;;;;;;6.47;5.50;;;;;;;14.24;100.00;99409.81;5016026;28;20381;-87
2023/11/04 00:19:46;;;;;;;6.85;6.25;;;;;;;14.22;100.00;99417.78;5013038;28;20056;-87
2023/11/04 00:22:11;;;;;;;5.57;3.58;;;;;;;14.22;100.00;99416.91;5030767;28;20168;-88
2023/11/04 00:24:37;;;;;;;5.18;4.78;;;;;;;13.04;100.00;99207.78;5031874;28;20502;-85
2023/11/04 00:27:03;;;;;;;6.45;5.38;;;;;;;13.67;100.00;99317.47;5035635;28;20100;-82
2023/11/04 00:36:35;;;;;;;4.47;3.97;;;;;;;14.53;100.00;99425.56;5033534;28;20036;-83
2023/11/04 00:39:01;;;;;;;3.13;2.83;;;;;;;14.30;100.00;99392.00;5026119;28;20103;-81
2023/11/04 00:41:26;;;;;;;5.97;3.15;;;;;;;14.47;100.00;99403.78;5019889;28;20036;-81
2023/11/04 00:43:52;;;;;;;7.22;2.85;;;;;;;13.93;100.00;99319.31;5033975;28;20034;-81
2023/11/04 00:46:30;;;;;;;3.83;3.10;;;;;;;14.36;100.00;99390.94;5032349;28;20389;-81
2023/11/04 00:48:55;;;;;;;1.25;0.68;;;;;;;14.06;100.00;99350.56;5030829;28;20034;-80
2023/11/04 00:51:21;;;;;;;3.20;2.65;;;;;;;13.96;100.00;99318.34;5032146;28;20075;-83
2023/11/04 01:05:48;;;;;;;1.00;0.95;;;;;;;14.58;100.00;99401.69;5032189;28;20539;-80
2023/11/04 01:08:52;;;;;;;1.23;1.13;;;;;;;14.59;100.00;99405.22;5027312;28;20089;-81
2023/11/04 01:11:46;;;;;;;1.10;1.00;;;;;;;14.66;100.00;99407.59;5027251;28;20045;-80
2023/11/04 01:14:11;;;;;;;;;;;;;;;14.54;100.00;99408.00;5028345;28;20040;-84
2023/11/04 01:16:37;;;;;;;8.18;4.57;;;;;;;14.55;100.00;99393.88;5022564;28;19967;-84
2023/11/04 01:19:03;;;;;;;2.92;2.60;;;;;;;14.38;100.00;99369.81;5030151;28;20042;-83
2023/11/04 01:21:28;;;;;;;1.58;1.15;;;;;;;13.89;100.00;99282.53;5030312;28;20401;-83
2023/11/04 01:23:54;;;;;;;3.38;2.80;;;;;;;14.57;100.00;99366.53;5030840;28;20030;-80
2023/11/04 01:26:20;;;;;;;11.13;2.20;;;;;;;14.35;100.00;99337.31;5013638;28;20046;-79
2023/11/04 01:35:28;;;;;;;2.58;2.00;;;;;;;13.97;100.00;99275.22;5034646;28;20087;-85
2023/11/04 01:37:54;;;;;;;2.90;2.30;;;;;;;14.48;100.00;99364.16;5032420;28;20029;-83
2023/11/04 01:40:21;;;;;;;1.45;0.93;;;;;;;14.43;100.00;99363.44;5033614;28;20045;-84
2023/11/04 01:42:46;;;;;;;2.78;2.03;;;;;;;14.33;100.00;99331.22;5013848;28;20056;-83
2023/11/04 01:45:27;;;;;;;1.83;1.67;;;;;;;14.57;100.00;99363.88;5029649;28;20036;-83
2023/11/04 01:48:33;;;;;;;4.78;2.85;;;;;;;14.66;100.00;99369.78;5031962;28;20081;-84
2023/11/04 01:51:21;;;;;;;3.90;3.35;;;;;;;14.66;100.00;99389.13;5030986;28;20037;-83
2023/11/04 01:53:52;;;;;;;1.30;1.20;;;;;;;14.60;100.00;99391.97;5039674;28;20362;-82
2023/11/04 01:56:24;;;;;;;1.52;1.42;;;;;;;14.23;100.00;99329.78;5051585;28;20091;-82
2023/11/04 01:59:36;;;;;;;2.97;2.70;;;;;;;14.75;100.00;99401.16;5031818;28;20423;-83
2023/11/04 02:02:03;;;;;;;8.93;2.70;;;;;;;14.20;100.00;99377.38;5044827;28;20045;-80
2023/11/04 02:04:29;;;;;;;1.73;1.63;;;;;;;13.96;100.00;99306.94;5031134;28;20330;-83
2023/11/04 02:06:55;;;;;;;3.15;1.85;;;;;;;14.30;100.00;99370.88;5047631;28;20127;-82
2023/11/04 02:09:20;;;;;;;2.42;1.73;;;;;;;14.44;100.00;99381.00;5051811;28;20381;-82
2023/11/04 02:11:46;;;;;;;3.03;1.30;;;;;;;14.50;100.00;99374.66;5039181;28;20043;-82
2023/11/04 02:14:12;;;;;;;2.13;1.73;;;;;;;14.57;100.00;99385.00;5063743;28;20053;-83
2023/11/04 02:16:37;;;;;;;5.15;2.92;;;;;;;14.21;100.00;99317.53;5037637;28;20465;-83
2023/11/04 02:19:04;;;;;;;3.10;1.70;;;;;;;14.18;100.00;99286.84;5047648;28;20128;-81
2023/11/04 02:21:30;;;;;;;1.45;1.23;;;;;;;14.64;100.00;99350.50;5064301;28;20037;-81
2023/11/04 02:23:57;;;;;;;1.23;1.13;;;;;;;14.64;100.00;99339.94;5051002;28;20020;-82
2023/11/04 02:26:23;;;;;;;6.50;3.58;;;;;;;14.66;100.00;99338.97;5051925;28;20017;-82
2023/11/04 02:28:48;;;;;;;2.95;2.70;;;;;;;14.66;100.00;99338.97;5034776;28;20385;-82
2023/11/04 02:31:14;;;;;;;1.13;0.93;;;;;;;14.76;100.00;99361.47;5048263;28;20045;-83
2023/11/04 02:33:41;;;;;;;3.25;3.00;;;;;;;13.87;100.00;99255.34;5032235;28;20057;-82
2023/11/04 02:36:07;;;;;;;2.22;2.03;;;;;;;14.42;100.00;99343.25;5046050;28;20017;-83
2023/11/04 02:38:32;;;;;;;1.42;1.33;;;;;;;13.97;100.00;99248.00;5046576;28;20033;-81
2023/11/04 02:41:05;;;;;;;2.55;2.35;;;;;;;14.18;100.00;99278.94;5048597;28;20037;-82
2023/11/04 02:43:57;;;;;;;3.35;1.58;;;;;;;14.72;100.00;99359.00;5029758;28;20388;-83
2023/11/04 02:46:23;;;;;;;1.15;1.13;;;;;;;14.61;100.00;99340.91;5058032;28;20257;-82
2023/11/04 02:48:48;;;;;;;2.35;1.60;;;;;;;14.42;100.00;99286.94;5049910;28;20124;-81
2023/11/04 02:51:14;;;;;;;0.45;0.45;;;;;;;14.47;100.00;99303.47;5043512;28;20052;-81
2023/11/04 02:53:39;;;;;;;2.78;2.58;;;;;;;14.53;100.00;99288.31;5029867;28;20048;-81
2023/11/04 02:56:05;;;;;;;0.70;0.55;;;;;;;13.79;100.00;99150.13;5034669;28;20111;-81
2023/11/04 02:58:31;;;;;;;2.78;1.77;;;;;;;14.77;100.00;99310.41;5022364;28;20029;-82
2023/11/04 03:00:57;;;;;;;0.20;0.20;;;;;;;14.00;100.00;99203.03;5030524;28;20358;-81
2023/11/04 03:03:23;;;;;;;0.73;0.73;;;;;;;14.69;100.00;99299.25;5047017;28;20037;-80
2023/11/04 03:05:48;;;;;;;1.23;1.13;;;;;;;13.83;100.00;99162.28;5045324;28;20024;-82
2023/11/04 03:08:14;;;;;;;0.77;0.77;;;;;;;14.67;100.00;99297.56;5045218;28;20033;-82
2023/11/04 03:10:52;;;;;;;1.92;1.35;;;;;;;14.60;100.00;99261.75;5028216;28;20103;-81
2023/11/04 03:13:19;;;;;;;0.98;0.88;;;;;;;14.89;100.00;99287.09;5044043;28;20064;-81
2023/11/04 03:15:45;;;;;;;0.40;0.40;;;;;;;14.69;100.00;99229.72;5048452;28;20103;-81
2023/11/04 03:21:32;;;;;;;0.30;0.30;;;;;;;14.92;100.00;99261.44;5072190;28;20055;-83
2023/11/04 03:23:58;;;;;;;1.75;1.13;;;;;;;14.78;100.00;99230.25;5049615;28;20434;-84
2023/11/04 03:26:23;;;;;;;0.55;0.55;;;;;;;14.93;100.00;99255.25;5038260;28;20036;-83
2023/11/04 03:28:49;;;;;;;1.48;0.75;;;;;;;14.80;100.00;99251.34;5051834;28;20041;-80
2023/11/04 03:31:15;;;;;;;1.38;1.00;;;;;;;14.73;100.00;99248.06;5050692;28;20065;-81
2023/11/04 03:33:41;;;;;;;0.80;0.55;;;;;;;14.73;100.00;99260.41;5030424;28;20523;-82
2023/11/04 03:36:10;;;;;;;4.28;1.45;;;;;;;14.78;100.00;99275.16;5047755;28;20033;-82
2023/11/04 03:38:38;;;;;;;1.13;1.02;;;;;;;14.11;100.00;99185.09;5032194;28;20383;-82
2023/11/04 03:41:04;;;;;;;0.90;0.68;;;;;;;14.82;100.00;99285.59;5044018;28;20039;-82
2023/11/04 03:43:31;;;;;;;0.47;0.45;;;;;;;14.58;100.00;99253.88;5047800;28;20491;-81
2023/11/04 03:46:09;;;;;;;0.88;0.85;;;;;;;14.80;100.00;99276.84;5047110;28;20092;-82
2023/11/04 03:48:37;;;;;;;0.40;0.40;;;;;;;14.85;100.00;99299.56;5048203;28;20043;-82
2023/11/04 03:51:04;;;;;;;0.63;0.63;;;;;;;14.55;100.00;99240.78;5047286;28;20029;-81
2023/11/04 03:53:29;;;;;;;1.05;0.98;;;;;;;14.71;100.00;99283.34;5043516;28;20049;-83
2023/11/04 03:55:55;;;;;;;1.80;1.65;;;;;;;14.77;100.00;99289.28;5027603;28;20040;-82
2023/11/04 03:58:21;;;;;;;0.50;0.47;;;;;;;14.32;100.00;99201.97;5029978;28;20595;-81
2023/11/04 04:00:47;;;;;;;2.05;1.88;;;;;;;14.80;100.00;99274.22;5032224;28;20030;-81
2023/11/04 04:06:56;;;;;;;1.15;1.05;;;;;;;14.75;100.00;99261.22;5029780;28;20044;-82
2023/11/04 04:09:32;;;;;;;1.52;1.30;;;;;;;14.81;100.00;99273.31;5032911;28;20033;-82
2023/11/04 04:11:57;;;;;;;1.30;1.13;;;;;;;14.85;100.00;99259.94;5032575;28;20030;-81
2023/11/04 04:14:23;;;;;;;0.73;0.70;;;;;;;14.42;100.00;99200.75;5031327;28;20025;-82
2023/11/04 04:16:48;;;;;;;4.18;1.65;;;;;;;14.31;100.00;99181.78;5030996;28;20033;-82
2023/11/04 04:19:14;;;;;;;1.95;1.50;;;;;;;14.85;100.00;99264.38;5033179;28;20048;-81
2023/11/04 04:21:39;;;;;;;0.32;0.32;;;;;;;14.38;100.00;99185.06;5020825;28;20687;-81
2023/11/04 04:24:06;;;;;;;1.83;1.73;;;;;;;14.75;100.00;99266.50;5020815;28;20199;-84
2023/11/04 04:26:31;;;;;;;1.30;1.02;;;;;;;14.37;100.00;99210.56;5029899;28;20036;-85
2023/11/04 04:29:49;;;;;;;1.48;1.38;;;;;;;14.83;100.00;99292.63;5037833;28;20033;-85
2023/11/04 04:35:36;;;;;;;0.95;0.75;;;;;;;14.81;100.00;99297.94;5017949;28;20145;-85
2023/11/04 04:38:02;;;;;;;1.83;1.60;;;;;;;14.66;100.00;99287.94;5027573;28;20048;-83
2023/11/04 04:40:27;;;;;;;2.28;1.55;;;;;;;14.05;100.00;99228.38;5032167;28;20033;-84
2023/11/04 04:42:53;;;;;;;1.35;1.25;;;;;;;14.04;100.00;99187.06;5028327;28;20099;-82
2023/11/04 04:45:31;;;;;;;1.33;1.23;;;;;;;14.27;100.00;99231.13;5032307;28;20037;-82
2023/11/04 04:47:57;;;;;;;0.98;0.75;;;;;;;14.83;100.00;99327.81;5031956;28;20377;-83
2023/11/04 04:50:23;;;;;;;4.20;2.05;;;;;;;14.39;100.00;99255.38;5031045;28;20364;-82
2023/11/04 04:52:56;;;;;;;0.95;0.52;;;;;;;14.31;100.00;99240.69;4989398;28;20122;-82
2023/11/04 04:56:01;;;;;;;1.00;0.98;;;;;;;14.87;100.00;99326.78;5025925;28;20044;-82
2023/11/04 04:59:11;;;;;;;2.03;1.00;;;;;;;14.86;100.00;99332.13;5050096;28;20346;-81
2023/11/04 05:01:37;;;;;;;1.35;0.68;;;;;;;14.89;100.00;99332.88;5051322;28;20044;-82
2023/11/04 05:04:03;;;;;;;0.80;0.80;;;;;;;14.54;100.00;99281.31;5054574;28;20079;-82
2023/11/04 05:06:29;;;;;;;3.13;1.33;;;;;;;14.35;100.00;99268.69;5050418;28;20036;-82
2023/11/04 05:08:55;;;;;;;0.60;0.60;;;;;;;14.79;100.00;99342.03;5051823;28;20449;-82
2023/11/04 05:11:21;;;;;;;1.92;1.25;;;;;;;14.21;100.00;99246.31;5029325;28;20135;-81
2023/11/04 05:13:47;;;;;;;3.10;2.65;;;;;;;14.87;100.00;99361.13;5050997;28;20025;-82
2023/11/04 05:16:13;;;;;;;1.35;1.25;;;;;;;14.27;100.00;99257.53;5051829;28;20116;-79
2023/11/04 05:18:48;;;;;;;1.63;0.82;;;;;;;14.75;100.00;99343.94;5052330;28;20064;-81
2023/11/04 05:31:19;;;;;;;3.47;3.17;;;;;;;14.22;100.00;99275.28;5053964;28;20488;-83
2023/11/04 05:37:07;;;;;;;2.85;2.38;;;;;;;14.39;100.00;99290.56;5053601;28;20110;-86
2023/11/04 05:39:33;;;;;;;4.35;3.53;;;;;;;14.01;100.00;99223.25;5018022;28;20064;-83
2023/11/04 05:45:20;;;;;;;4.47;1.80;;;;;;;14.78;100.00;99335.03;5053651;28;20094;-85
2023/11/04 05:51:07;;;;;;;3.88;3.50;;;;;;;14.24;100.00;99276.09;5052682;28;20040;-85
2023/11/04 05:53:32;;;;;;;3.15;2.85;;;;;;;14.19;100.00;99271.88;5050361;28;20049;-85
2023/11/04 05:55:58;;;;;;;1.58;1.30;;;;;;;14.21;100.00;99283.25;5015080;28;20045;-83
2023/11/04 05:58:24;;;;;;;4.30;2.15;;;;;;;14.42;100.00;99285.19;5033459;28;20449;-83
2023/11/04 06:04:11;;;;;;;3.28;3.00;;;;;;;14.38;100.00;99302.03;5033433;28;20048;-82
2023/11/04 06:06:37;;;;;;;5.22;4.72;;;;;;;13.78;100.00;99195.00;5032748;28;20041;-82
2023/11/04 06:09:02;;;;;;;3.78;3.45;;;;;;;13.73;100.00;99210.97;5023228;28;20029;-83
2023/11/04 06:11:28;;;;;;;8.70;1.77;;;;;;;13.96;100.00;99270.03;5027401;28;20032;-80
2023/11/04 06:13:54;;;;;;;8.48;5.68;;;;;;;14.18;100.00;99267.53;5030012;28;20041;-79
2023/11/04 06:16:19;;;;;;;5.53;4.05;;;;;;;13.86;100.00;99212.31;5023000;28;20042;-81
2023/11/04 06:18:45;;;;;;;2.75;2.55;;;;;;;14.13;100.00;99262.41;5029883;28;20053;-85
2023/11/04 06:21:15;;;;;;;5.55;3.22;;;;;;;14.07;100.00;99236.22;5032686;28;20025;-80
2023/11/04 06:31:03;;;;;;;3.35;3.10;;;;;;;14.81;100.00;99316.44;5032892;28;20052;-78
2023/11/04 06:33:29;;;;;;;4.63;3.45;;;;;;;14.03;100.00;99229.34;5014134;28;20377;-79
2023/11/04 06:35:57;;;;;;;4.00;3.67;;;;;;;14.39;100.00;99303.75;5033322;28;20032;-79
2023/11/04 06:38:23;;;;;;;3.25;2.70;;;;;;;14.21;100.00;99247.19;5032904;28;20473;-78
2023/11/04 06:44:10;;;;;;;1.70;1.60;;;;;;;14.26;100.00;99229.44;5032804;28;20393;-79
2023/11/04 06:46:37;;;;;;;3.67;3.35;;;;;;;14.20;100.00;99212.94;5032270;28;20064;-77
2023/11/04 06:49:03;;;;;;;2.78;2.47;;;;;;;14.30;100.00;99227.53;5014733;28;20068;-79
2023/11/04 06:51:28;;;;;;;4.68;3.53;;;;;;;14.69;100.00;99293.09;5029752;28;20113;-81
2023/11/04 06:53:56;;;;;;;4.38;3.97;;;;;;;15.00;100.00;99329.84;5033485;28;20057;-78
2023/11/04 06:56:25;;;;;;;8.27;4.32;;;;;;;15.07;100.00;99333.13;5014160;28;20084;-79
2023/11/04 06:58:52;;;;;;;2.88;2.50;;;;;;;14.63;100.00;99259.84;5033208;28;20041;-83
2023/11/04 07:04:41;;;;;;;5.15;4.05;;;;;;;14.91;100.00;99293.19;5031048;28;20048;-75
2023/11/04 07:07:06;;;;;;;3.35;3.05;;;;;;;14.38;100.00;99172.72;5014778;28;20037;-76
2023/11/04 07:09:36;;;;;;;2.50;1.98;;;;;;;14.80;100.00;99235.50;5032185;28;20037;-80
2023/11/04 07:12:02;;;;;;;4.18;3.20;;;;;;;14.17;100.00;99165.56;5014449;28;20377;-81
2023/11/04 07:17:49;;;;;;;5.47;3.53;;;;;;;14.48;100.00;99149.50;5033049;28;20032;-82
2023/11/04 07:20:15;;;;;;;4.45;4.05;;;;;;;14.43;100.00;99132.97;5029641;28;20140;-81
2023/11/04 07:22:40;;;;;;;2.53;1.88;;;;;;;14.41;100.00;99109.25;5029631;28;20041;-81
2023/11/04 07:25:06;;;;;;;6.00;1.75;;;;;;;15.03;100.00;99213.53;5020573;28;20038;-82
2023/11/04 07:27:32;;;;;;;3.83;2.78;;;;;;;14.75;100.00;99155.59;4993696;28;20049;-82
2023/11/04 07:29:58;;;;;;;3.17;2.83;;;;;;;14.52;100.00;99115.00;5031868;28;20029;-82
2023/11/04 07:32:23;;;;;;;5.22;2.63;;;;;;;15.01;100.00;99195.97;5030310;28;20435;-82
2023/11/04 07:35:09;;;;;;;2.47;2.13;;;;;;;15.22;100.00;99215.44;5032026;28;20473;-81
2023/11/04 07:37:36;;;;;;;2.97;2.78;;;;;;;15.13;100.00;99212.25;5012665;28;20099;-82
2023/11/04 07:40:04;;;;;;;4.10;2.97;;;;;;;14.09;100.00;99031.28;5031158;28;20039;-82
2023/11/04 07:49:14;;;;;;;15.15;2.45;;;;;;;15.06;100.00;99155.28;5032740;28;20053;-82
2023/11/04 07:51:39;;;;;;;2.10;1.90;;;;;;;14.84;100.00;99114.75;5034448;28;20044;-81
2023/11/04 07:54:07;;;;;;;2.35;2.15;;;;;;;14.88;100.00;99132.19;5022407;28;20147;-81
2023/11/04 07:57:27;;;;;;;1.20;1.10;;;;;;;15.37;100.00;99204.28;5037125;28;20037;-82
2023/11/04 08:03:30;;;;;;;3.90;2.53;;;;;;;15.36;100.00;99235.16;5033863;28;20043;-81
2023/11/04 08:30:03;;;;;;;4.63;3.35;;;;;;;15.59;100.00;99214.84;5035520;28;20091;-82
2023/11/04 08:32:50;;;;;;;2.20;2.03;;;;;;;15.54;100.00;99225.63;5033122;28;20041;-82
2023/11/04 08:35:22;;;;;;;2.47;2.22;;;;;;;15.23;100.00;99201.31;5033315;28;20543;-81
2023/11/04 08:37:48;;;;;;;7.05;2.55;;;;;;;15.35;100.00;99190.25;4997555;28;20038;-82
2023/11/04 08:40:14;;;;;;;2.15;1.98;;;;;;;15.60;100.00;99227.19;5029930;28;20029;-82
2023/11/04 08:42:40;;;;;;;3.33;3.03;;;;;;;15.42;100.00;99189.09;5008114;28;20481;-81
2023/11/04 08:45:11;;;;;;;2.17;1.33;;;;;;;15.31;100.00;99175.44;5012895;28;20108;-80
2023/11/04 08:47:36;;;;;;;2.38;2.17;;;;;;;15.50;100.00;99199.34;5034820;28;20075;-83
2023/11/04 08:50:03;;;;;;;2.20;2.00;;;;;;;15.49;100.00;99174.72;5031663;28;20409;-81
2023/11/04 08:52:29;;;;;;;3.03;2.25;;;;;;;14.90;100.00;99070.47;5031940;28;20064;-82
2023/11/04 08:54:54;;;;;;;2.72;2.50;;;;;;;15.55;100.00;99184.19;5026056;28;20477;-82
2023/11/04 09:09:48;;;;;;;7.15;2.22;;;;;;;15.26;100.00;99101.63;5030871;28;20083;-81
2023/11/04 09:16:09;;;;;;;30.67;2.67;;;;;;;14.43;100.00;98948.22;5018794;28;20115;-82
2023/11/04 09:25:19;;;;;;;7.47;3.92;;;;;;;15.05;100.00;99057.56;5052190;28;20047;-80
2023/11/04 09:27:47;;;;;;;2.30;2.13;;;;;;;14.55;100.00;98990.00;5031383;28;20120;-81
2023/11/04 09:30:13;;;;;;;2.70;2.50;;;;;;;14.30;100.00;98948.69;5038311;28;20060;-82
2023/11/04 09:32:39;;;;;;;2.83;2.55;;;;;;;14.32;100.00;98972.38;5041573;28;20053;-82
2023/11/04 09:35:59;;;;;;;4.53;4.10;;;;;;;15.12;100.00;99061.69;5033966;28;20481;-82
2023/11/04 09:38:30;;;;;;;2.95;2.60;;;;;;;14.06;100.00;98868.72;5024801;28;20087;-81
2023/11/04 09:40:56;;;;;;;2.47;2.15;;;;;;;15.40;100.00;99054.38;5035089;28;20107;-80
2023/11/04 09:43:22;;;;;;;4.97;3.45;;;;;;;15.25;100.00;99048.84;5031694;28;20477;-82
2023/11/04 09:49:10;;;;;;;4.10;3.53;;;;;;;15.44;100.00;99083.31;5031714;28;20103;-82
2023/11/04 09:51:36;;;;;;;2.90;2.50;;;;;;;15.03;100.00;99003.94;5023969;28;20400;-80
2023/11/04 09:54:02;;;;;;;3.33;2.45;;;;;;;15.11;100.00;99029.13;5029561;28;20053;-80
2023/11/04 09:56:50;;;;;;;2.60;2.40;;;;;;;15.56;100.00;99101.28;5031756;28;20048;-80
2023/11/04 09:59:16;;;;;;;3.28;2.75;;;;;;;14.97;100.00;98976.84;5020969;28;20236;-82
2023/11/04 10:01:42;;;;;;;6.78;5.53;;;;;;;15.39;100.00;99044.69;5031843;28;20120;-82
2023/11/04 10:10:52;;;;;;;4.60;3.38;;;;;;;15.03;100.00;98967.84;5033943;28;20350;-82
2023/11/04 10:13:17;;;;;;;2.13;1.42;;;;;;;15.44;100.00;99002.22;5031039;28;20033;-81
2023/11/04 10:15:43;;;;;;;3.70;3.38;;;;;;;15.53;100.00;99001.81;5031376;28;20080;-81
2023/11/04 10:18:09;;;;;;;4.75;4.10;;;;;;;15.60;100.00;98983.91;5033661;28;20350;-81
2023/11/04 10:24:04;;;;;;;3.42;2.97;;;;;;;15.49;100.00;98981.72;5041824;28;20122;-81
2023/11/04 10:26:30;;;;;;;4.22;3.83;;;;;;;15.40;100.00;98932.78;5005670;28;20044;-81
2023/11/04 10:28:55;;;;;;;5.60;3.45;;;;;;;15.15;100.00;98913.63;5039107;28;20127;-81
2023/11/04 10:31:23;;;;;;;4.90;4.50;;;;;;;14.64;100.00;98852.38;5040703;28;20134;-81
2023/11/04 10:34:21;;;;;;;5.40;4.35;;;;;;;14.92;100.00;98935.72;5049205;28;20036;-81
2023/11/04 10:37:08;;;;;;;3.53;3.22;;;;;;;15.22;100.00;98967.91;5039798;28;20128;-81
2023/11/04 10:43:04;;;;;;;3.40;3.10;;;;;;;15.49;100.00;99013.44;5039729;28;20052;-80
2023/11/04 10:49:15;;;;;;;4.55;3.42;;;;;;;15.17;100.00;98961.94;5046418;28;20060;-80
2023/11/04 10:52:18;;;;;;;3.85;3.47;;;;;;;15.60;100.00;99050.88;5043484;28;20033;-80
2023/11/04 10:54:47;;;;;;;6.60;3.92;;;;;;;14.56;100.00;98886.13;5039482;28;20044;-82
2023/11/04 11:01:02;;;;;;;2.72;2.40;;;;;;;15.80;100.00;99051.81;5028267;28;20121;-79
2023/11/04 11:07:27;;;;;;;4.97;3.88;;;;;;;15.81;100.00;99049.13;5038570;28;20440;-81
2023/11/04 11:10:00;;;;;;;3.38;3.08;;;;;;;14.95;100.00;98933.78;5029129;28;20050;-80
2023/11/04 11:12:29;;;;;;;3.60;2.95;;;;;;;15.74;100.00;99044.16;5035770;28;20046;-81
2023/11/04 11:14:55;;;;;;;5.30;3.63;;;;;;;15.75;100.00;98985.91;5017846;28;20030;-81
2023/11/04 11:17:31;;;;;;;3.95;3.65;;;;;;;15.27;100.00;98921.00;5012536;28;20049;-82
2023/11/04 11:19:57;;;;;;;5.55;4.57;;;;;;;14.92;100.00;98864.41;5031627;28;20653;-82
2023/11/04 11:22:25;;;;;;;2.28;1.83;;;;;;;14.43;100.00;98806.56;5031601;28;20060;-82
2023/11/04 11:24:58;;;;;;;3.88;3.50;;;;;;;15.03;100.00;98882.41;5033208;28;20539;-82
2023/11/04 11:27:24;;;;;;;6.82;5.75;;;;;;;14.36;100.00;98807.75;5033708;28;20038;-82
2023/11/04 11:29:50;;;;;;;3.22;2.78;;;;;;;14.63;100.00;98836.56;5033873;28;20026;-79
2023/11/04 11:32:16;;;;;;;2.30;2.08;;;;;;;14.67;100.00;98849.59;5035625;28;20123;-80
2023/11/04 11:34:55;;;;;;;2.55;1.85;;;;;;;15.02;100.00;98966.09;5033855;28;20043;-82
2023/11/04 11:37:23;;;;;;;3.13;2.50;;;;;;;14.68;100.00;98906.75;5014314;28;20389;-80
2023/11/04 11:39:50;;;;;;;3.85;2.58;;;;;;;14.73;100.00;98909.22;5016290;28;20413;-80
2023/11/04 11:42:16;;;;;;;2.80;2.22;;;;;;;14.93;100.00;98940.91;5017415;28;20057;-81
2023/11/04 11:45:30;;;;;;;4.05;3.60;;;;;;;15.45;100.00;99027.72;5036234;28;20025;-81
2023/11/04 11:51:17;;;;;;;5.10;4.47;;;;;;;14.97;100.00;98931.09;5033046;28;20076;-81
2023/11/04 11:53:46;;;;;;;7.43;5.65;;;;;;;14.99;100.00;98961.81;5034243;28;20033;-81
2023/11/04 11:56:12;;;;;;;5.85;4.65;;;;;;;14.51;100.00;98878.34;5055252;28;20480;-82
2023/11/04 11:58:38;;;;;;;5.68;5.20;;;;;;;15.31;100.00;99007.19;5049086;28;20483;-80
2023/11/04 12:01:08;;;;;;;9.32;5.95;;;;;;;15.29;100.00;98979.94;5055407;28;20116;-82
2023/11/04 12:03:35;;;;;;;2.63;2.42;;;;;;;14.73;100.00;98882.81;5055182;28;20053;-81
2023/11/04 12:06:01;;;;;;;2.20;1.92;;;;;;;15.20;100.00;98940.69;5051754;28;20056;-80
2023/11/04 12:08:38;;;;;;;5.88;3.60;;;;;;;15.36;100.00;98947.03;5050372;28;20049;-82
2023/11/04 12:11:11;;;;;;;2.80;2.10;;;;;;;15.34;100.00;98940.97;5033683;28;20139;-81
2023/11/04 12:14:14;;;;;;;6.78;4.47;;;;;;;15.36;100.00;98917.13;5050245;28;20068;-82
2023/11/04 12:17:16;;;;;;;8.57;4.13;;;;;;;15.19;100.00;98896.69;5050968;28;20040;-81
2023/11/04 12:20:11;;;;;;;1.90;1.77;;;;;;;15.19;100.00;98883.47;5044746;28;20033;-81
2023/11/04 12:22:40;;;;;;;2.25;2.05;;;;;;;14.91;100.00;98817.78;5051675;28;20059;-82
2023/11/04 12:25:07;;;;;;;2.00;1.65;;;;;;;14.40;100.00;98721.38;5053076;28;20131;-81
2023/11/04 12:28:14;;;;;;;3.03;2.35;;;;;;;15.18;100.00;98843.00;5043596;28;20033;-81
2023/11/04 12:34:03;;;;;;;7.53;3.38;;;;;;;14.69;100.00;98750.06;5047820;28;20387;-80
2023/11/04 12:43:14;;;;;;;2.50;2.30;;;;;;;14.67;100.00;98795.94;5051800;28;20388;-81
2023/11/04 12:46:01;;;;;;;0.52;0.52;;;;;;;15.10;100.00;98860.97;5039575;28;20433;-81
2023/11/04 12:51:56;;;;;;;2.60;2.40;;;;;;;15.26;100.00;98907.84;5053008;28;20040;-82
2023/11/04 12:54:21;;;;;;;2.25;1.80;;;;;;;15.28;100.00;98909.50;5046879;28;20045;-82
2023/11/04 12:56:47;;;;;;;1.88;1.77;;;;;;;15.14;100.00;98894.25;5031200;28;20036;-82
2023/11/04 12:59:19;;;;;;;4.75;4.35;;;;;;;15.13;100.00;98921.59;5025622;28;20518;-81
2023/11/04 13:01:46;;;;;;;3.67;3.22;;;;;;;15.07;100.00;98898.06;5022864;28;20045;-82
2023/11/04 13:04:12;;;;;;;2.15;1.58;;;;;;;15.12;100.00;98917.22;5024813;28;20061;-82
2023/11/04 13:06:37;;;;;;;2.05;1.85;;;;;;;15.10;100.00;98915.56;5023331;28;20059;-82
2023/11/04 13:09:22;;;;;;;5.57;3.65;;;;;;;15.24;100.00;98910.59;5020147;28;20048;-80
2023/11/04 13:11:50;;;;;;;1.67;1.58;;;;;;;15.18;100.00;98900.28;5024786;28;20410;-79
2023/11/04 13:14:15;;;;;;;2.50;2.30;;;;;;;14.69;100.00;98807.28;5009203;28;20053;-79
2023/11/04 13:16:42;;;;;;;1.88;1.77;;;;;;;14.81;100.00;98832.31;5030007;28;20045;-80
2023/11/04 13:19:07;;;;;;;2.08;1.92;;;;;;;15.23;100.00;98916.78;5028699;28;20041;-80
2023/11/04 13:21:43;;;;;;;2.92;2.45;;;;;;;15.31;100.00;98927.88;5032421;28;20033;-80
2023/11/04 13:28:11;;;;;;;8.73;5.53;;;;;;;15.12;100.00;98895.22;5032727;28;20067;-80
2023/11/04 13:30:37;;;;;;;0.82;0.80;;;;;;;15.25;100.00;98872.66;5013377;28;20068;-80
2023/11/04 13:33:02;;;;;;;3.38;2.70;;;;;;;15.19;100.00;98872.91;5033472;28;20061;-81
2023/11/04 13:35:28;;;;;;;2.75;2.45;;;;;;;14.46;100.00;98806.44;5032068;28;20021;-80
2023/11/04 13:38:05;;;;;;;5.53;3.65;;;;;;;14.88;100.00;98890.06;5027851;28;20038;-80
2023/11/04 13:40:30;;;;;;;4.22;3.38;;;;;;;14.49;100.00;98798.41;5024550;28;20087;-80
2023/11/04 13:42:56;;;;;;;2.97;2.78;;;;;;;14.71;100.00;98839.78;5029827;28;20441;-80
2023/11/04 13:45:23;;;;;;;1.08;0.98;;;;;;;14.98;100.00;98899.34;5026227;28;20432;-78
2023/11/04 13:47:48;;;;;;;3.50;3.20;;;;;;;14.55;100.00;98802.59;5029916;28;21174;-78
2023/11/04 13:50:14;;;;;;;3.67;2.00;;;;;;;15.02;100.00;98863.06;5025088;28;20041;-79
2023/11/04 13:52:40;;;;;;;2.53;2.28;;;;;;;14.65;100.00;98829.47;5029278;28;20041;-80
2023/11/04 13:55:06;;;;;;;2.15;1.83;;;;;;;14.91;100.00;98866.19;5031505;28;20481;-79
2023/11/04 13:57:32;;;;;;;2.22;1.50;;;;;;;14.90;100.00;98871.53;5026826;28;20029;-84
2023/11/04 13:59:58;;;;;;;11.75;1.98;;;;;;;14.81;100.00;98817.31;5007097;28;20405;-78
2023/11/04 14:09:06;;;;;;;2.50;2.30;;;;;;;15.08;100.00;98857.53;5053469;28;20048;-80
2023/11/04 14:11:55;;;;;;;2.33;2.13;;;;;;;14.96;100.00;98881.81;5015947;28;20021;-80
2023/11/04 14:21:24;;;;;;;2.17;1.98;;;;;;;15.06;100.00;98903.44;5030714;28;20399;-79
2023/11/04 14:23:49;;;;;;;1.98;1.80;;;;;;;14.98;100.00;98904.63;5026937;28;20057;-81
2023/11/04 14:26:15;;;;;;;2.30;2.00;;;;;;;14.82;100.00;98878.91;5013436;28;20063;-80
2023/11/04 14:28:40;;;;;;;1.88;1.63;;;;;;;14.46;100.00;98801.16;5028014;28;20049;-80
2023/11/04 14:31:08;;;;;;;3.25;1.98;;;;;;;14.87;100.00;98872.53;5027621;28;20021;-80
2023/11/04 14:33:34;;;;;;;3.22;2.88;;;;;;;14.70;100.00;98835.41;5032491;28;20136;-80
2023/11/04 14:36:00;;;;;;;4.18;3.38;;;;;;;14.46;100.00;98798.53;5027952;28;20033;-80
2023/11/04 14:38:25;;;;;;;3.75;2.25;;;;;;;14.46;100.00;98787.97;5025915;28;20032;-80
2023/11/04 14:44:47;;;;;;;3.17;2.97;;;;;;;15.03;100.00;98887.69;5033023;28;20087;-79
2023/11/04 14:47:13;;;;;;;2.97;2.67;;;;;;;14.69;100.00;98834.53;5027388;28;20565;-79
2023/11/04 14:49:39;;;;;;;3.20;2.42;;;;;;;15.02;100.00;98854.31;5028090;28;20029;-79
2023/11/04 14:52:04;;;;;;;2.50;2.28;;;;;;;14.66;100.00;98823.28;5024939;28;20342;-79
2023/11/04 14:54:30;;;;;;;2.03;1.67;;;;;;;15.03;100.00;98869.22;5024523;28;20080;-79
2023/11/04 14:57:30;;;;;;;2.45;1.70;;;;;;;15.15;100.00;98888.06;5029343;28;20025;-79